Time;durP1;ratioP1;P1;durP2;ratioP2;P2;SDS_P1;SDS_P2;PMS_P1;PMS_P2;Temp;Humidity;BMP_temperature;BMP_pressure;BME280_temperature;BME280_humidity;BME280_pressure;Samples;Min_cycle;Max_cycle;Signal;HPM_P1;HPM_P2
2022/02/17 00:01:29;;;;;;;38.60;17.30;;;;;;;-0.83;88.86;96942.67;109881;1249;69255;-67
2022/02/17 00:03:59;;;;;;;103.70;24.50;;;;;;;-0.84;88.44;96939.96;109744;1250;59724;-66
2022/02/17 00:06:28;;;;;;;31.00;16.40;;;;;;;-0.89;88.72;96938.27;109996;1250;59676;-66
2022/02/17 00:08:58;;;;;;;131.00;27.80;;;;;;;-0.91;88.18;96936.97;109892;1251;71539;-73
2022/02/17 00:11:27;;;;;;;113.40;27.10;;;;;;;-0.98;88.73;96934.82;109717;1252;67767;-67
2022/02/17 00:13:56;;;;;;;120.30;28.40;;;;;;;-1.07;89.23;96933.75;110010;1250;69425;-66
2022/02/17 00:16:26;;;;;;;100.90;25.00;;;;;;;-1.13;89.76;96939.05;109668;1251;59716;-73
2022/02/17 00:18:55;;;;;;;56.60;24.10;;;;;;;-1.16;90.03;96944.48;109986;1250;60073;-67
2022/02/17 00:21:24;;;;;;;37.30;19.30;;;;;;;-1.17;89.89;96946.38;109948;1250;71362;-66
2022/02/17 00:23:54;;;;;;;67.00;23.70;;;;;;;-1.16;89.71;96944.31;109959;1250;68515;-66
2022/02/17 00:26:25;;;;;;;33.40;17.60;;;;;;;-1.17;90.21;96945.54;109894;1250;68684;-66
2022/02/17 00:28:57;;;;;;;26.90;16.60;;;;;;;-1.17;89.84;96948.27;109866;1249;59702;-67
2022/02/17 00:31:27;;;;;;;183.40;35.10;;;;;;;-1.19;89.40;96944.91;109730;1250;59638;-64
2022/02/17 00:33:57;;;;;;;48.60;23.80;;;;;;;-1.21;89.83;96942.25;109713;1251;71416;-73
2022/02/17 00:36:26;;;;;;;49.80;22.00;;;;;;;-1.20;89.79;96943.06;109892;1250;68058;-76
2022/02/17 00:38:58;;;;;;;40.70;22.20;;;;;;;-1.21;89.18;96942.44;109999;1250;68457;-75
2022/02/17 00:41:27;;;;;;;;;;;;;;;-1.23;88.73;96944.23;109956;1250;60152;-73
2022/02/17 00:43:56;;;;;;;26.10;14.20;;;;;;;-1.23;87.38;96939.42;110023;1249;59769;-68
2022/02/17 00:46:27;;;;;;;38.80;16.40;;;;;;;-1.23;86.24;96940.44;110187;1250;70568;-66
2022/02/17 00:48:58;;;;;;;34.40;16.90;;;;;;;-1.28;85.65;96945.75;109844;1251;67962;-65
2022/02/17 00:51:29;;;;;;;52.20;22.00;;;;;;;-1.39;85.31;96944.89;109814;1251;68660;-66
2022/02/17 00:53:59;;;;;;;44.50;21.90;;;;;;;-1.49;85.56;96939.59;109952;1250;59662;-65
2022/02/17 00:56:30;;;;;;;56.90;26.70;;;;;;;-1.52;85.06;96932.34;110073;1249;59720;-66
2022/02/17 00:59:01;;;;;;;44.00;24.30;;;;;;;-1.62;85.64;96928.73;109984;1250;71373;-65
2022/02/17 01:01:32;;;;;;;49.50;24.70;;;;;;;-1.70;85.97;96931.04;109849;1250;67988;-72
2022/02/17 01:04:01;;;;;;;49.90;24.30;;;;;;;-1.76;86.04;96926.63;109757;1250;69449;-74
2022/02/17 01:06:31;;;;;;;36.30;20.80;;;;;;;-1.83;86.25;96922.91;109896;1250;59772;-73
2022/02/17 01:09:03;;;;;;;31.50;16.50;;;;;;;-1.88;86.89;96922.22;109673;1250;59709;-73
2022/02/17 01:11:33;;;;;;;54.10;23.60;;;;;;;-1.92;87.36;96910.21;110011;1250;71521;-71
2022/02/17 01:14:04;;;;;;;64.80;23.60;;;;;;;-1.94;88.00;96904.45;109803;1251;67740;-73
2022/02/17 01:16:35;;;;;;;17.80;10.50;;;;;;;-1.93;88.08;96903.25;109733;1251;69233;-74
2022/02/17 01:19:13;;;;;;;75.10;27.10;;;;;;;-1.89;87.84;96903.81;109931;1250;59719;-73
2022/02/17 01:21:47;;;;;;;36.70;21.00;;;;;;;-1.90;86.96;96893.05;109753;1250;59706;-72
2022/02/17 01:24:17;;;;;;;37.40;21.20;;;;;;;-1.91;86.55;96885.91;109874;1250;70941;-75
2022/02/17 01:26:48;;;;;;;28.10;18.50;;;;;;;-1.90;86.34;96881.27;109703;1251;67653;-70
2022/02/17 01:29:20;;;;;;;65.00;27.50;;;;;;;-1.89;86.22;96872.52;109948;1250;69242;-68
2022/02/17 01:31:49;;;;;;;;;;;;;;;-1.88;86.66;96864.84;109888;1250;59665;-67
2022/02/17 01:34:20;;;;;;;91.80;24.60;;;;;;;-1.89;87.71;96854.44;109854;1250;59779;-73
2022/02/17 01:37:02;;;;;;;44.00;20.40;;;;;;;-1.89;89.52;96849.63;109905;1250;70742;-74
2022/02/17 01:39:33;;;;;;;33.40;17.30;;;;;;;-1.85;89.92;96845.08;109708;1251;68557;-73
2022/02/17 01:42:08;;;;;;;17.00;9.90;;;;;;;-1.80;89.63;96840.30;109807;1250;67501;-68
2022/02/17 01:44:47;;;;;;;46.80;19.10;;;;;;;-1.74;88.73;96835.84;110114;1250;59695;-71
2022/02/17 01:47:19;;;;;;;25.30;14.60;;;;;;;-1.70;87.42;96829.03;109897;1250;59707;-66
2022/02/17 01:49:50;;;;;;;33.20;18.50;;;;;;;-1.68;86.41;96827.45;109967;1250;70577;-67
2022/02/17 01:52:20;;;;;;;40.80;21.30;;;;;;;-1.68;86.76;96825.04;109944;1249;67745;-69
2022/02/17 01:54:50;;;;;;;28.80;17.70;;;;;;;-1.69;86.91;96822.16;109927;1250;69229;-73
2022/02/17 01:57:29;;;;;;;95.80;37.10;;;;;;;-1.69;86.68;96821.47;109825;1250;59754;-67
2022/02/17 02:00:06;;;;;;;42.90;19.40;;;;;;;-1.70;87.02;96812.14;109710;1250;59654;-71
2022/02/17 02:02:46;;;;;;;34.10;15.40;;;;;;;-1.70;86.85;96808.18;109824;1250;71605;-66
2022/02/17 02:05:52;;;;;;;49.80;22.30;;;;;;;-1.70;86.58;96802.22;109914;1249;68464;-73
2022/02/17 02:08:23;;;;;;;39.90;19.50;;;;;;;-1.69;87.17;96803.39;109938;1248;69282;-67
2022/02/17 02:10:53;;;;;;;;;;;;;;;-1.69;87.00;96796.38;109876;1249;59691;-66
2022/02/17 02:13:23;;;;;;;26.70;16.30;;;;;;;-1.69;86.84;96791.92;110093;1249;60187;-67
2022/02/17 02:15:54;;;;;;;17.50;10.20;;;;;;;-1.70;86.45;96787.00;109883;1251;71463;-64
2022/02/17 02:18:26;;;;;;;37.30;20.00;;;;;;;-1.71;86.61;96783.61;109794;1250;68043;-66
2022/02/17 02:20:58;;;;;;;57.00;22.10;;;;;;;-1.74;86.86;96784.23;109916;1250;68897;-67
2022/02/17 02:23:37;;;;;;;17.30;10.00;;;;;;;-1.75;86.38;96785.48;109894;1251;59698;-66
2022/02/17 02:26:08;;;;;;;63.60;26.70;;;;;;;-1.77;85.86;96778.20;109974;1250;59802;-65
2022/02/17 02:28:40;;;;;;;32.30;18.20;;;;;;;-1.85;86.55;96778.80;109960;1250;71538;-65
2022/02/17 02:31:10;;;;;;;74.80;25.00;;;;;;;-1.89;85.99;96777.58;109945;1250;67738;-65
2022/02/17 02:33:43;;;;;;;36.70;16.70;;;;;;;-1.93;85.60;96778.41;109973;1250;69399;-66
2022/02/17 02:36:13;;;;;;;23.50;12.40;;;;;;;-1.97;84.68;96771.70;109755;1250;59767;-72
2022/02/17 02:38:59;;;;;;;20.30;12.20;;;;;;;-1.99;84.59;96770.73;109854;1250;59736;-66
2022/02/17 02:41:37;;;;;;;22.60;12.70;;;;;;;-2.05;84.40;96760.84;109719;1250;70608;-66
2022/02/17 02:44:07;;;;;;;26.30;15.00;;;;;;;-2.11;84.46;96763.41;109202;1250;793547;-73
2022/02/17 02:46:41;;;;;;;61.70;19.60;;;;;;;-2.22;85.76;96765.51;109859;1250;69303;-70
2022/02/17 02:49:11;;;;;;;;;;;;;;;-2.31;86.71;96760.66;109945;1250;59739;-72
2022/02/17 02:51:40;;;;;;;30.30;12.80;;;;;;;-2.35;86.25;96756.53;109679;1250;59648;-72
2022/02/17 02:54:12;;;;;;;28.10;13.60;;;;;;;-2.36;85.26;96760.65;110010;1250;71732;-72
2022/02/17 02:56:43;;;;;;;24.10;12.10;;;;;;;-2.38;85.16;96761.26;109927;1250;68372;-72
2022/02/17 02:59:13;;;;;;;22.90;12.00;;;;;;;-2.38;84.95;96760.73;109768;1250;68411;-74
2022/02/17 03:01:43;;;;;;;25.70;12.80;;;;;;;-2.37;85.07;96761.21;109970;1250;59787;-72
2022/02/17 03:04:13;;;;;;;;;;;;;;;-2.36;85.27;96758.61;109960;1250;59741;-64
2022/02/17 03:06:47;;;;;;;14.90;10.40;;;;;;;-2.38;86.18;96754.76;109714;1250;71447;-64
2022/02/17 03:09:20;;;;;;;18.70;10.90;;;;;;;-2.42;86.06;96752.49;109848;1250;67954;-64
2022/02/17 03:11:49;;;;;;;17.50;11.10;;;;;;;-2.44;85.93;96752.40;109907;1250;69618;-65
2022/02/17 03:14:20;;;;;;;16.90;10.20;;;;;;;-2.44;85.76;96752.92;109697;1250;59790;-70
2022/02/17 03:16:49;;;;;;;28.80;14.00;;;;;;;-2.45;85.86;96754.30;109963;1250;59729;-66
2022/02/17 03:19:19;;;;;;;22.40;12.80;;;;;;;-2.44;85.79;96758.54;109938;1250;71561;-68
2022/02/17 03:21:49;;;;;;;16.80;10.90;;;;;;;-2.43;85.56;96754.23;109932;1250;68609;-68
2022/02/17 03:24:19;;;;;;;15.00;10.20;;;;;;;-2.43;85.47;96754.23;109997;1249;69475;-68
2022/02/17 03:26:49;;;;;;;21.30;11.40;;;;;;;-2.42;85.44;96751.97;109983;1250;59988;-69
2022/02/17 03:29:19;;;;;;;21.50;11.50;;;;;;;-2.41;85.32;96750.08;109941;1250;59775;-69
2022/02/17 03:31:48;;;;;;;20.40;12.40;;;;;;;-2.41;85.54;96746.15;109928;1250;71627;-72
2022/02/17 03:34:21;;;;;;;100.70;24.70;;;;;;;-2.43;86.33;96738.54;109782;1251;67626;-73
2022/02/17 03:36:51;;;;;;;22.80;13.10;;;;;;;-2.50;88.07;96737.55;109953;1250;69515;-66
2022/02/17 03:39:24;;;;;;;23.80;12.50;;;;;;;-2.49;87.44;96740.79;109702;1250;59698;-69
2022/02/17 03:42:07;;;;;;;58.80;20.30;;;;;;;-2.52;87.11;96740.70;109852;1250;59692;-68
2022/02/17 03:44:37;;;;;;;66.90;20.90;;;;;;;-2.59;87.81;96738.52;109927;1250;70753;-74
2022/02/17 03:47:13;;;;;;;84.10;22.20;;;;;;;-2.67;88.32;96735.55;109732;1251;68535;-74
2022/02/17 03:49:57;;;;;;;26.80;14.70;;;;;;;-2.69;88.89;96731.50;109741;1250;69324;-67
2022/02/17 03:52:28;;;;;;;15.50;9.50;;;;;;;-2.70;88.59;96722.14;109881;1250;59716;-73
2022/02/17 03:55:12;;;;;;;20.80;12.80;;;;;;;-2.67;87.93;96717.64;109682;1251;59708;-73
2022/02/17 03:57:45;;;;;;;37.60;16.30;;;;;;;-2.64;87.54;96709.33;109814;1250;71532;-73
2022/02/17 04:00:17;;;;;;;37.00;18.80;;;;;;;-2.61;87.36;96702.58;109734;1250;69033;-74
2022/02/17 04:02:46;;;;;;;42.50;22.40;;;;;;;-2.59;86.75;96694.33;109696;1250;67615;-71
2022/02/17 04:05:21;;;;;;;35.50;18.80;;;;;;;-2.59;87.00;96685.46;109618;1251;59735;-72
2022/02/17 04:08:01;;;;;;;37.20;19.60;;;;;;;-2.57;86.82;96675.65;109810;1251;59955;-69
2022/02/17 04:10:39;;;;;;;37.40;17.70;;;;;;;-2.53;86.90;96669.95;109552;1251;70538;-74
2022/02/17 04:13:24;;;;;;;37.90;19.20;;;;;;;-2.50;86.49;96662.50;109615;1250;68639;-71
2022/02/17 04:16:02;;;;;;;28.30;14.20;;;;;;;-2.48;86.20;96654.07;109715;1251;69438;-68
2022/02/17 04:18:37;;;;;;;36.50;18.10;;;;;;;-2.47;85.99;96647.05;109722;1250;59625;-69
2022/02/17 04:21:14;;;;;;;64.00;23.80;;;;;;;-2.46;86.39;96645.98;109689;1251;59682;-73
2022/02/17 04:24:00;;;;;;;35.70;17.00;;;;;;;-2.48;87.52;96647.74;109672;1251;71652;-75
2022/02/17 04:26:36;;;;;;;24.00;12.20;;;;;;;-2.44;86.59;96644.05;109588;1251;67879;-73
2022/02/17 04:29:17;;;;;;;30.20;16.60;;;;;;;-2.40;85.83;96635.38;109825;1250;68686;-67
2022/02/17 04:31:57;;;;;;;27.90;16.30;;;;;;;-2.38;85.77;96639.89;109812;1250;59742;-74
2022/02/17 04:34:29;;;;;;;30.90;14.80;;;;;;;-2.37;86.22;96638.30;110086;1250;59707;-74
2022/02/17 04:37:14;;;;;;;36.70;20.40;;;;;;;-2.34;85.80;96634.80;109772;1251;72056;-74
2022/02/17 04:40:00;;;;;;;55.30;25.10;;;;;;;-2.32;85.90;96642.42;109718;1250;69565;-70
2022/02/17 04:42:40;;;;;;;46.10;19.90;;;;;;;-2.28;86.04;96641.42;109615;1250;68710;-74
2022/02/17 04:45:15;;;;;;;58.80;23.80;;;;;;;-2.28;87.61;96629.48;109724;1250;60096;-73
2022/02/17 04:47:48;;;;;;;44.90;20.10;;;;;;;-2.26;88.29;96618.33;109807;1250;59679;-67
2022/02/17 04:50:20;;;;;;;46.00;20.50;;;;;;;-2.20;89.02;96604.79;109946;1250;71031;-67
2022/02/17 04:52:54;;;;;;;37.50;18.40;;;;;;;-2.14;89.45;96596.40;109994;1250;68634;-72
2022/02/17 04:55:31;;;;;;;26.90;13.60;;;;;;;-2.09;89.41;96598.41;109889;1250;68812;-67
2022/02/17 04:58:16;;;;;;;32.80;16.00;;;;;;;-2.02;88.22;96588.80;109776;1250;59740;-70
2022/02/17 05:00:49;;;;;;;42.00;21.10;;;;;;;-1.99;87.13;96591.58;109971;1250;59717;-73
2022/02/17 05:03:47;;;;;;;35.00;19.40;;;;;;;-1.95;86.72;96584.45;109930;1250;71949;-75
2022/02/17 05:06:25;;;;;;;67.70;30.90;;;;;;;-1.92;86.83;96583.84;110043;1250;68622;-68
2022/02/17 05:09:04;;;;;;;32.80;18.10;;;;;;;-1.91;87.69;96583.60;109645;1248;69140;-76
2022/02/17 05:11:40;;;;;;;29.50;17.20;;;;;;;-1.88;87.17;96575.48;109774;1250;59806;-74
2022/02/17 05:14:15;;;;;;;35.70;18.20;;;;;;;-1.83;87.31;96568.11;109715;1250;59708;-75
2022/02/17 05:16:48;;;;;;;41.40;20.40;;;;;;;-1.79;86.99;96566.59;109876;1250;72674;-75
2022/02/17 05:19:28;;;;;;;39.80;20.60;;;;;;;-1.72;86.05;96568.41;109780;1250;67880;-75
2022/02/17 05:22:31;;;;;;;36.10;18.40;;;;;;;-1.66;85.57;96567.15;109738;1250;69457;-75
2022/02/17 05:25:24;;;;;;;60.30;28.30;;;;;;;-1.63;85.70;96571.80;109829;1250;59802;-73
2022/02/17 05:27:56;;;;;;;105.90;48.70;;;;;;;-1.62;85.87;96579.13;109963;1250;59706;-74
2022/02/17 05:30:43;;;;;;;104.30;46.70;;;;;;;-1.64;86.58;96576.45;109804;1247;71574;-72
2022/02/17 05:33:38;;;;;;;47.50;26.60;;;;;;;-1.65;86.41;96571.71;109925;1249;68532;-72
2022/02/17 05:36:33;;;;;;;73.40;35.70;;;;;;;-1.62;86.10;96567.50;109795;1250;69573;-71
2022/02/17 05:39:31;;;;;;;76.90;36.10;;;;;;;-1.60;86.24;96572.70;110039;1249;59719;-71
2022/02/17 05:42:23;;;;;;;60.20;31.60;;;;;;;-1.53;86.51;96587.85;109782;1250;59688;-78
2022/02/17 05:45:03;;;;;;;64.90;33.90;;;;;;;-1.48;87.25;96590.23;110029;1250;70775;-74
2022/02/17 05:47:35;;;;;;;65.80;31.90;;;;;;;-1.44;88.62;96589.73;109831;1250;68145;-67
2022/02/17 05:50:10;;;;;;;55.50;25.40;;;;;;;-1.37;89.68;96587.58;110051;1250;69510;-74
2022/02/17 05:53:04;;;;;;;50.80;27.70;;;;;;;-1.23;89.44;96589.25;109892;1250;59748;-73
2022/02/17 05:55:35;;;;;;;61.70;30.10;;;;;;;-1.14;89.74;96589.41;109755;1250;59744;-70
2022/02/17 05:58:13;;;;;;;42.20;21.70;;;;;;;-1.04;89.12;96591.42;109848;1250;71343;-75
2022/02/17 06:00:53;;;;;;;50.90;27.60;;;;;;;-0.90;87.10;96578.87;109908;1248;68414;-72
2022/02/17 06:03:22;;;;;;;60.70;35.10;;;;;;;-0.82;86.89;96568.81;109896;1250;70687;-65
2022/02/17 06:05:52;;;;;;;;;;;;;;;-0.80;86.87;96565.81;109736;1250;59764;-64
2022/02/17 06:08:23;;;;;;;51.00;29.70;;;;;;;-0.78;87.12;96565.73;109977;1249;59622;-64
2022/02/17 06:10:53;;;;;;;62.30;34.70;;;;;;;-0.74;88.13;96573.24;109719;1250;71417;-63
2022/02/17 06:13:23;;;;;;;61.40;30.90;;;;;;;-0.70;88.63;96577.70;109700;1251;67954;-64
2022/02/17 06:15:55;;;;;;;41.90;22.80;;;;;;;-0.64;89.49;96576.27;109822;1250;69543;-66
2022/02/17 06:18:24;;;;;;;55.40;30.40;;;;;;;-0.56;89.60;96573.00;109802;1249;59774;-64
2022/02/17 06:20:55;;;;;;;58.70;29.60;;;;;;;-0.45;89.84;96561.64;110010;1249;59659;-68
2022/02/17 06:23:25;;;;;;;67.60;35.10;;;;;;;-0.34;90.12;96563.53;109811;1250;71604;-69
2022/02/17 06:25:56;;;;;;;34.10;19.10;;;;;;;-0.23;89.27;96563.74;109826;1250;68883;-69
2022/02/17 06:28:27;;;;;;;57.30;31.60;;;;;;;-0.10;88.26;96562.16;109746;1249;69505;-71
2022/02/17 06:30:58;;;;;;;78.10;41.10;;;;;;;0.06;89.57;96561.43;109727;1250;59691;-70
2022/02/17 06:33:28;;;;;;;38.30;23.30;;;;;;;0.20;89.19;96561.30;109797;1248;59698;-71
2022/02/17 06:35:59;;;;;;;37.40;24.20;;;;;;;0.36;88.27;96563.16;109701;1250;70964;-69
2022/02/17 06:38:30;;;;;;;46.60;27.80;;;;;;;0.57;87.95;96565.29;110028;1248;68407;-63
2022/02/17 06:41:00;;;;;;;42.90;27.40;;;;;;;0.80;87.60;96561.99;109744;1250;68646;-64
2022/02/17 06:43:33;;;;;;;50.70;29.40;;;;;;;1.01;87.42;96556.15;109709;1250;59748;-64
2022/02/17 06:46:05;;;;;;;66.80;38.40;;;;;;;1.23;87.17;96549.77;110039;1248;59725;-67
2022/02/17 06:48:34;;;;;;;47.50;28.90;;;;;;;1.40;87.25;96549.79;109901;1250;71115;-68
2022/02/17 06:51:03;;;;;;;66.10;40.20;;;;;;;1.54;86.68;96552.37;109902;1250;67861;-68
2022/02/17 06:53:33;;;;;;;68.00;42.00;;;;;;;1.54;85.08;96553.71;109917;1250;69492;-69
2022/02/17 06:56:01;;;;;;;60.40;37.70;;;;;;;1.60;85.26;96546.05;109735;1250;60053;-71
2022/02/17 06:58:31;;;;;;;45.00;28.80;;;;;;;1.77;85.36;96542.45;110002;1249;59714;-70
2022/02/17 07:01:00;;;;;;;47.80;32.40;;;;;;;1.98;85.13;96537.21;109772;1250;71710;-70
2022/02/17 07:03:29;;;;;;;47.70;28.90;;;;;;;2.14;84.75;96532.59;109813;1250;68765;-71
2022/02/17 07:06:01;;;;;;;55.60;34.70;;;;;;;2.26;84.51;96519.54;109576;1249;68685;-68
2022/02/17 07:08:29;;;;;;;54.20;36.00;;;;;;;2.33;83.23;96517.48;109885;1250;59786;-71
2022/02/17 07:11:00;;;;;;;56.20;37.40;;;;;;;2.33;82.91;96514.89;110011;1249;59688;-67
2022/02/17 07:13:30;;;;;;;39.40;25.80;;;;;;;2.53;83.33;96511.04;109932;1249;72012;-66
2022/02/17 07:16:00;;;;;;;47.10;28.20;;;;;;;2.95;83.36;96510.59;109655;1250;67810;-66
2022/02/17 07:18:29;;;;;;;45.20;28.00;;;;;;;3.43;82.47;96504.54;109811;1250;69481;-67
2022/02/17 07:20:58;;;;;;;55.60;37.10;;;;;;;3.88;82.08;96497.06;109840;1250;59682;-67
2022/02/17 07:23:29;;;;;;;48.60;32.10;;;;;;;4.17;79.85;96488.17;109907;1250;59646;-66
2022/02/17 07:25:58;;;;;;;55.10;39.00;;;;;;;4.34;79.95;96481.80;109987;1250;71666;-68
2022/02/17 07:28:27;;;;;;;50.60;30.80;;;;;;;4.42;78.85;96471.48;109699;1250;68624;-65
2022/02/17 07:30:57;;;;;;;56.20;36.90;;;;;;;4.37;77.87;96465.08;109847;1249;69592;-65
2022/02/17 07:33:26;;;;;;;40.80;25.30;;;;;;;4.34;77.95;96460.42;109928;1250;59685;-64
2022/02/17 07:35:55;;;;;;;33.40;22.70;;;;;;;4.42;78.57;96459.41;109933;1250;59717;-64
2022/02/17 07:38:45;;;;;;;46.70;31.30;;;;;;;4.51;78.47;96454.14;110002;1250;71489;-64
2022/02/17 07:41:14;;;;;;;42.30;26.40;;;;;;;4.64;78.80;96441.41;109661;1250;68185;-65
2022/02/17 07:43:44;;;;;;;39.20;25.60;;;;;;;4.89;78.58;96430.64;109972;1249;69398;-67
2022/02/17 07:46:17;;;;;;;34.20;22.30;;;;;;;5.18;78.53;96431.13;110160;1248;59746;-65
2022/02/17 07:48:46;;;;;;;26.90;19.00;;;;;;;5.50;78.66;96431.02;109786;1249;59663;-70
2022/02/17 07:51:17;;;;;;;24.80;16.60;;;;;;;5.99;78.35;96436.35;109889;1250;71354;-66
2022/02/17 07:53:46;;;;;;;27.40;19.20;;;;;;;6.48;77.66;96440.48;109891;1250;67919;-67
2022/02/17 07:56:16;;;;;;;;;;;;;;;6.92;74.06;96438.52;109859;1250;69384;-65
2022/02/17 07:58:46;;;;;;;17.40;11.10;;;;;;;7.38;75.77;96445.81;109752;1250;59756;-65
2022/02/17 08:01:18;;;;;;;16.70;11.80;;;;;;;7.89;75.52;96444.38;109858;1250;59690;-67
2022/02/17 08:03:51;;;;;;;17.80;12.10;;;;;;;8.17;72.86;96442.67;109882;1249;70874;-65
2022/02/17 08:06:21;;;;;;;17.80;13.20;;;;;;;8.36;72.14;96441.75;109890;1250;67790;-64
2022/02/17 08:08:56;;;;;;;19.80;13.50;;;;;;;8.40;70.75;96445.28;109728;1250;67612;-65
2022/02/17 08:11:26;;;;;;;19.00;13.30;;;;;;;8.22;69.19;96443.89;109710;1250;59664;-64
2022/02/17 08:13:56;;;;;;;18.40;14.10;;;;;;;7.64;67.51;96443.30;109880;1250;59694;-66
2022/02/17 08:16:27;;;;;;;15.00;11.70;;;;;;;7.60;68.43;96439.31;109830;1250;71248;-69
2022/02/17 08:18:56;;;;;;;19.60;14.10;;;;;;;8.01;67.55;96439.12;109691;1253;68493;-68
2022/02/17 08:21:45;;;;;;;20.40;14.30;;;;;;;8.42;65.29;96443.55;109636;1250;70193;-66
2022/02/17 08:24:17;;;;;;;18.50;13.60;;;;;;;9.32;63.80;96436.41;110177;1249;59751;-68
2022/02/17 08:26:46;;;;;;;27.40;19.30;;;;;;;9.83;60.43;96427.21;110014;1250;59736;-68
2022/02/17 08:29:16;;;;;;;29.50;20.80;;;;;;;10.29;59.19;96430.11;110096;1248;70634;-65
2022/02/17 08:31:48;;;;;;;44.00;30.00;;;;;;;9.92;58.73;96422.80;109993;1249;67839;-66
2022/02/17 08:34:19;;;;;;;49.40;35.70;;;;;;;10.23;60.00;96417.16;110141;1250;67866;-69
2022/02/17 08:36:48;;;;;;;44.30;34.40;;;;;;;10.20;58.10;96412.91;110030;1248;59720;-67
2022/02/17 08:39:18;;;;;;;38.90;29.30;;;;;;;9.62;59.88;96410.06;110019;1249;59607;-66
2022/02/17 08:41:48;;;;;;;36.90;27.30;;;;;;;9.05;60.95;96400.71;110020;1250;71394;-70
2022/02/17 08:44:17;;;;;;;37.60;26.60;;;;;;;8.56;63.39;96395.34;109930;1250;68690;-66
2022/02/17 08:46:47;;;;;;;35.60;26.60;;;;;;;8.33;64.42;96391.84;110171;1249;69478;-71
2022/02/17 08:49:16;;;;;;;29.90;20.70;;;;;;;8.29;64.94;96393.83;109999;1250;59799;-70
2022/02/17 08:51:46;;;;;;;;;;;;;;;8.27;64.81;96397.33;109890;1250;59644;-74
2022/02/17 08:54:15;;;;;;;158.70;86.60;;;;;;;8.25;65.01;96382.19;110073;1250;69959;-74
2022/02/17 08:56:47;;;;;;;64.30;38.10;;;;;;;8.45;64.62;96371.06;109939;1250;67824;-73
2022/02/17 08:59:16;;;;;;;24.80;16.50;;;;;;;8.76;64.25;96372.85;110052;1249;69263;-74
2022/02/17 09:01:48;;;;;;;260.80;152.40;;;;;;;9.15;62.35;96370.88;109868;1250;59735;-75
2022/02/17 09:04:17;;;;;;;31.60;21.00;;;;;;;9.51;60.84;96368.33;109942;1250;59678;-76
2022/02/17 09:06:48;;;;;;;25.30;16.40;;;;;;;9.55;60.61;96361.95;110052;1249;71571;-76
2022/02/17 09:09:17;;;;;;;41.90;22.40;;;;;;;9.53;60.42;96355.54;110016;1249;67960;-77
2022/02/17 09:11:46;;;;;;;19.30;13.40;;;;;;;9.38;60.41;96362.01;109754;1250;69276;-78
2022/02/17 09:14:16;;;;;;;17.70;13.30;;;;;;;9.18;61.46;96364.02;109714;1250;59789;-76
2022/02/17 09:16:45;;;;;;;21.60;14.20;;;;;;;9.30;61.03;96356.42;110087;1249;59662;-72
2022/02/17 09:19:14;;;;;;;23.20;15.60;;;;;;;9.15;61.01;96354.02;109846;1250;72223;-68
2022/02/17 09:21:43;;;;;;;26.60;18.00;;;;;;;9.06;61.08;96355.95;109827;1251;67109;-77
2022/02/17 09:24:12;;;;;;;19.50;14.10;;;;;;;8.66;61.67;96357.18;110032;1250;68655;-69
2022/02/17 09:26:45;;;;;;;23.40;16.40;;;;;;;8.47;62.66;96352.48;109760;1250;59776;-69
2022/02/17 09:29:14;;;;;;;21.70;13.90;;;;;;;8.46;62.61;96348.05;110194;1248;59687;-68
2022/02/17 09:32:03;;;;;;;17.90;12.90;;;;;;;8.09;63.73;96339.07;110086;1249;70757;-72
2022/02/17 09:34:34;;;;;;;29.00;21.10;;;;;;;8.24;63.72;96320.55;109756;1250;68612;-70
2022/02/17 09:37:03;;;;;;;;;;;;;;;8.29;63.27;96312.09;109967;1250;68834;-67
2022/02/17 09:39:36;;;;;;;16.70;11.60;;;;;;;8.16;63.35;96306.23;109974;1250;59715;-69
2022/02/17 09:42:06;;;;;;;15.70;11.10;;;;;;;8.01;63.81;96297.52;109822;1250;59751;-69
2022/02/17 09:44:35;;;;;;;;;;;;;;;8.29;63.42;96280.36;109859;1249;70738;-71
2022/02/17 09:47:07;;;;;;;18.70;12.50;;;;;;;8.43;63.10;96274.88;109853;1250;67859;-70
2022/02/17 09:49:44;;;;;;;20.40;13.30;;;;;;;8.50;62.92;96278.30;109930;1251;68459;-75
2022/02/17 09:52:20;;;;;;;19.50;12.20;;;;;;;8.59;62.65;96266.80;109900;1250;59830;-68
2022/02/17 09:54:51;;;;;;;19.70;12.80;;;;;;;8.51;62.53;96263.27;109913;1250;59701;-75
2022/02/17 09:57:23;;;;;;;15.60;10.90;;;;;;;8.26;62.85;96261.13;109942;1250;71264;-68
2022/02/17 10:00:02;;;;;;;19.10;11.00;;;;;;;7.92;63.96;96255.95;110019;1250;67966;-70
2022/02/17 10:02:51;;;;;;;13.90;9.80;;;;;;;7.92;63.65;96248.65;109933;1250;69250;-75
2022/02/17 10:05:27;;;;;;;18.70;12.90;;;;;;;7.76;64.39;96247.86;109737;1253;59741;-73
2022/02/17 10:08:21;;;;;;;18.30;12.40;;;;;;;7.35;65.91;96241.03;109642;1250;59735;-74
2022/02/17 10:10:55;;;;;;;18.20;12.60;;;;;;;7.45;65.37;96241.13;109774;1250;70770;-67
2022/02/17 10:13:30;;;;;;;12.30;9.30;;;;;;;7.01;66.84;96246.60;109814;1250;68660;-74
2022/02/17 10:16:02;;;;;;;17.00;9.90;;;;;;;7.09;66.57;96232.59;109794;1250;68397;-73
2022/02/17 10:18:41;;;;;;;16.40;11.00;;;;;;;7.13;66.51;96228.70;109767;1250;59684;-73
2022/02/17 10:21:15;;;;;;;16.60;11.60;;;;;;;7.18;66.62;96219.14;109765;1250;59754;-74
2022/02/17 10:23:55;;;;;;;16.50;12.10;;;;;;;7.08;67.32;96224.58;109656;1250;70764;-74
2022/02/17 10:26:30;;;;;;;14.20;9.50;;;;;;;7.11;67.04;96219.84;109763;1249;69259;-72
2022/02/17 10:29:06;;;;;;;12.40;9.20;;;;;;;7.22;66.69;96189.73;109983;1250;69417;-73
2022/02/17 10:31:44;;;;;;;15.60;10.30;;;;;;;7.35;66.13;96174.13;109746;1250;59699;-75
2022/02/17 10:34:20;;;;;;;20.60;12.40;;;;;;;7.46;65.86;96167.85;109731;1250;59779;-74
2022/02/17 10:37:01;;;;;;;18.90;11.30;;;;;;;7.58;65.79;96164.48;109756;1250;71526;-73
2022/02/17 10:39:42;;;;;;;15.90;9.20;;;;;;;7.56;65.20;96156.29;109736;1250;67832;-74
2022/02/17 10:42:15;;;;;;;17.30;11.50;;;;;;;7.55;65.36;96146.67;109722;1250;68482;-74
2022/02/17 10:44:47;;;;;;;14.10;10.10;;;;;;;7.58;65.49;96146.95;109885;1251;59789;-74
2022/02/17 10:47:28;;;;;;;14.50;9.70;;;;;;;7.53;65.21;96140.96;109563;1250;59741;-74
2022/02/17 10:50:00;;;;;;;15.80;10.30;;;;;;;7.59;65.22;96124.69;109827;1250;71607;-75
2022/02/17 10:52:43;;;;;;;14.90;9.50;;;;;;;7.55;65.18;96115.09;109798;1250;68486;-75
2022/02/17 10:55:17;;;;;;;12.80;9.00;;;;;;;7.66;64.88;96101.20;109728;1250;69583;-74
2022/02/17 10:57:51;;;;;;;15.30;9.20;;;;;;;7.70;64.87;96098.66;109785;1250;59815;-73
2022/02/17 11:00:30;;;;;;;14.30;10.30;;;;;;;7.78;64.53;96092.11;109654;1250;59706;-74
2022/02/17 11:03:03;;;;;;;13.70;8.60;;;;;;;7.85;64.37;96079.41;109854;1250;71626;-73
2022/02/17 11:05:54;;;;;;;14.20;9.50;;;;;;;7.91;63.96;96066.00;109856;1249;68854;-74
2022/02/17 11:08:25;;;;;;;16.20;9.80;;;;;;;7.83;64.07;96053.52;109790;1250;69481;-74
2022/02/17 11:10:59;;;;;;;11.20;8.30;;;;;;;7.86;64.02;96038.86;109700;1250;59669;-75
2022/02/17 11:13:33;;;;;;;14.80;8.70;;;;;;;7.85;63.97;96018.48;109656;1250;59734;-71
2022/02/17 11:16:15;;;;;;;13.40;7.90;;;;;;;7.92;64.13;96008.56;109807;1250;71130;-75
2022/02/17 11:18:47;;;;;;;10.80;8.40;;;;;;;8.12;63.42;96005.40;109866;1250;67873;-76
2022/02/17 11:21:21;;;;;;;11.10;8.00;;;;;;;8.05;63.44;96008.61;109714;1249;69409;-72
2022/02/17 11:24:03;;;;;;;11.10;7.70;;;;;;;8.48;62.43;95998.21;109634;1251;59730;-75
2022/02/17 11:26:46;;;;;;;9.00;7.00;;;;;;;8.58;61.84;95990.91;109705;1250;59661;-74
2022/02/17 11:29:27;;;;;;;7.40;5.30;;;;;;;8.50;61.18;95990.92;109801;1250;72689;-74
2022/02/17 11:32:02;;;;;;;7.20;5.20;;;;;;;8.64;60.65;95995.04;109773;1250;67113;-73
2022/02/17 11:34:36;;;;;;;8.80;6.00;;;;;;;8.83;60.16;95996.02;109728;1251;70645;-72
2022/02/17 11:37:28;;;;;;;9.60;6.30;;;;;;;8.89;59.98;95991.16;109856;1250;59740;-73
2022/02/17 11:40:08;;;;;;;8.50;5.60;;;;;;;9.66;58.31;95964.70;109960;1249;59733;-73
2022/02/17 11:42:45;;;;;;;8.30;6.00;;;;;;;11.44;53.23;95943.81;109940;1250;72778;-74
2022/02/17 11:45:30;;;;;;;7.30;5.50;;;;;;;12.85;48.61;95939.80;109701;1250;68869;-75
2022/02/17 11:48:10;;;;;;;8.00;5.20;;;;;;;14.27;45.90;95917.91;109739;1252;68721;-74